createdAt,value
2023-01-19T00:02:26.400Z,95009.32
2023-01-19T00:05:51.459Z,95008.41
2023-01-19T00:09:22.026Z,95004.79
2023-01-19T00:12:47.769Z,95016.25
2023-01-19T00:16:12.307Z,95042.58
2023-01-19T00:19:43.541Z,95039.19
2023-01-19T00:23:07.735Z,95034.48
2023-01-19T00:26:39.476Z,95034.64
2023-01-19T00:30:12.912Z,95036.71
2023-01-19T00:37:10.556Z,95029.32
2023-01-19T00:40:42.799Z,95025.44
2023-01-19T00:44:14.911Z,95025.36
2023-01-19T00:47:48.113Z,95017.15
2023-01-19T01:43:19.694Z,94972.66
2023-01-19T01:53:47.103Z,94971.52
2023-01-19T02:04:33.138Z,94955.62
2023-01-19T02:08:02.269Z,94942.14
2023-01-19T02:11:33.540Z,94947.33
2023-01-19T02:28:59.698Z,94949.67
2023-01-19T02:32:29.817Z,94955.30
2023-01-19T02:36:02.326Z,94948.76
2023-01-19T02:39:36.004Z,94937.86
2023-01-19T02:43:06.132Z,94938.48
2023-01-19T02:46:38.757Z,94944.30
2023-01-19T02:50:11.725Z,94937.19
2023-01-19T02:53:43.989Z,94931.90
2023-01-19T02:57:21.788Z,94921.65
2023-01-19T03:00:51.545Z,94918.81
2023-01-19T03:04:29.514Z,94915.17
2023-01-19T03:08:02.872Z,94918.18
2023-01-19T03:11:35.447Z,94948.48
2023-01-19T03:15:08.100Z,94949.72
2023-01-19T03:18:42.009Z,94936.31
2023-01-19T03:21:58.394Z,94943.27
2023-01-19T03:25:30.147Z,94941.89
2023-01-19T03:29:02.141Z,94941.14
2023-01-19T03:32:33.367Z,94929.60
2023-01-19T03:36:05.129Z,94930.48
2023-01-19T03:39:36.975Z,94926.46
2023-01-19T03:43:09.172Z,94920.51
2023-01-19T03:46:41.600Z,94923.91
2023-01-19T03:50:07.338Z,94934.13
2023-01-19T03:53:43.760Z,94958.50
2023-01-19T03:57:15.604Z,94951.08
2023-01-19T04:00:47.502Z,94955.11
2023-01-19T04:04:20.865Z,94959.64
2023-01-19T04:07:52.647Z,94945.98
2023-01-19T04:11:24.309Z,94940.52
2023-01-19T04:14:55.878Z,94936.70
2023-01-19T04:18:27.517Z,94941.39
2023-01-19T04:21:59.335Z,94932.08
2023-01-19T04:25:31.156Z,94923.91
2023-01-19T04:29:02.942Z,94936.20
2023-01-19T04:32:36.532Z,94940.83
2023-01-19T05:14:20.617Z,95002.50
2023-01-19T05:17:53.001Z,95004.92
2023-01-19T05:21:24.123Z,95011.62
2023-01-19T05:24:56.752Z,95004.42
2023-01-19T05:28:29.156Z,95007.39
2023-01-19T05:31:53.951Z,94995.20
2023-01-19T05:35:11.385Z,94986.17
2023-01-19T05:38:42.857Z,94971.44
2023-01-19T05:42:18.028Z,94965.80
2023-01-19T05:45:48.749Z,94969.14
2023-01-19T05:49:18.815Z,94979.64
2023-01-19T05:52:42.888Z,94979.05
2023-01-19T06:30:21.939Z,94990.73
2023-01-19T06:33:46.193Z,94987.34
2023-01-19T06:37:18.977Z,94988.06
2023-01-19T06:40:51.286Z,94971.34
2023-01-19T07:12:07.589Z,94954.61
2023-01-19T07:15:37.969Z,94943.15
2023-01-19T07:19:09.167Z,94984.14
2023-01-19T07:22:41.150Z,94976.52
2023-01-19T07:26:12.613Z,94954.39
2023-01-19T07:29:44.503Z,94957.42
2023-01-19T07:33:08.180Z,94961.86
2023-01-19T07:36:39.826Z,94931.60
2023-01-19T07:40:10.991Z,94951.12
2023-01-19T07:43:42.121Z,94970.90
2023-01-19T07:47:17.396Z,94976.38
2023-01-19T07:50:50.127Z,94981.89
2023-01-19T07:57:58.712Z,94989.98
2023-01-19T08:01:30.119Z,95009.94
2023-01-19T08:05:03.071Z,95017.14
2023-01-19T08:08:26.501Z,95016.59
2023-01-19T08:11:57.868Z,95002.25
2023-01-19T08:15:29.942Z,94993.08
2023-01-19T08:19:02.439Z,95007.41
2023-01-19T08:22:36.235Z,94997.13
2023-01-19T08:26:08.474Z,94987.59
2023-01-19T08:29:29.426Z,94991.25
2023-01-19T08:32:59.486Z,94988.67
2023-01-19T08:36:35.647Z,94995.02
2023-01-19T08:40:06.661Z,94985.70
2023-01-19T08:43:41.155Z,94994.16
2023-01-19T10:24:15.980Z,94920.83
2023-01-19T10:27:45.929Z,94905.55
2023-01-19T10:30:59.743Z,94900.86
2023-01-19T10:51:20.452Z,94924.59
2023-01-19T10:54:14.034Z,94930.34
2023-01-19T11:03:45.988Z,94953.40
2023-01-19T11:07:01.977Z,94954.27
2023-01-19T11:10:05.344Z,94935.20
2023-01-19T11:13:27.080Z,94925.88
2023-01-19T11:16:57.733Z,94919.35
2023-01-19T11:20:07.865Z,94926.98
2023-01-19T11:23:09.545Z,94942.72
2023-01-19T11:55:20.579Z,94933.60
2023-01-19T12:02:02.842Z,94935.40
2023-01-19T12:05:20.645Z,94936.52
2023-01-19T12:08:49.879Z,94946.88
2023-01-19T12:11:53.657Z,94942.36
2023-01-19T12:18:47.575Z,94971.58
2023-01-19T12:22:18.169Z,94985.74
2023-01-19T12:25:38.507Z,94985.58
2023-01-19T12:29:09.329Z,94993.48
2023-01-19T12:32:13.339Z,94970.78
2023-01-19T12:35:45.098Z,94980.73
2023-01-19T12:39:11.338Z,94974.41
2023-01-19T12:42:21.213Z,94966.63
2023-01-19T12:45:50.619Z,94964.52
2023-01-19T12:49:23.215Z,94977.64
2023-01-19T12:53:18.764Z,94977.48
2023-01-19T12:56:51.249Z,94990.14
2023-01-19T13:00:24.055Z,94989.39
2023-01-19T13:03:47.566Z,94986.45
2023-01-19T13:07:12.219Z,94999.39
2023-01-19T13:10:35.457Z,95002.55
2023-01-19T13:14:16.681Z,94988.87
2023-01-19T13:17:50.139Z,95007.60
2023-01-19T13:24:40.214Z,95004.41
2023-01-19T14:44:26.420Z,95092.73
2023-01-19T14:48:04.343Z,95087.25
2023-01-19T14:51:36.101Z,95101.45
2023-01-19T14:55:20.636Z,95091.79
2023-01-19T14:58:54.751Z,95084.29
2023-01-19T15:02:26.688Z,95088.14
2023-01-19T15:05:59.037Z,95092.48
2023-01-19T15:09:30.639Z,95090.02
2023-01-19T15:12:56.687Z,95077.73
2023-01-19T15:16:27.840Z,95100.83
2023-01-19T15:20:01.842Z,95103.14
2023-01-19T15:23:33.641Z,95104.02
2023-01-19T16:05:15.246Z,95236.39
2023-01-19T16:08:44.697Z,95259.00
2023-01-19T16:12:15.883Z,95281.51
2023-01-19T16:15:47.480Z,95285.80
2023-01-19T16:19:18.345Z,95206.97
2023-01-19T16:22:50.067Z,95197.39
2023-01-19T16:26:21.878Z,95241.48
2023-01-19T16:29:53.586Z,95224.69
2023-01-19T16:33:25.182Z,95217.36
2023-01-19T16:37:01.907Z,95207.00
2023-01-19T16:40:33.496Z,95212.11
2023-01-19T16:44:04.472Z,95214.97
2023-01-19T16:47:36.113Z,95208.52
2023-01-19T16:51:08.013Z,95217.73
2023-01-19T16:54:41.278Z,95216.69
2023-01-19T16:58:10.939Z,95221.05
2023-01-19T17:01:38.873Z,95229.33
2023-01-19T17:05:11.328Z,95239.43
2023-01-19T17:08:43.420Z,95246.04
2023-01-19T17:12:16.957Z,95258.38
2023-01-19T17:15:49.013Z,95251.48
2023-01-19T17:19:20.653Z,95240.14
2023-01-19T17:22:52.531Z,95247.71
2023-01-19T17:26:23.997Z,95263.95
2023-01-19T17:29:55.526Z,95268.30
2023-01-19T17:33:27.181Z,95265.35
2023-01-19T17:36:58.890Z,95262.46
2023-01-19T17:40:30.896Z,95273.74
2023-01-19T17:44:02.454Z,95291.41
2023-01-19T17:47:35.221Z,95302.03
2023-01-19T17:50:57.293Z,95309.82
2023-01-19T17:54:29.680Z,95307.89
2023-01-19T17:58:02.033Z,95314.33
2023-01-19T18:01:36.441Z,95327.56
2023-01-19T18:05:10.986Z,95321.93
2023-01-19T18:08:42.813Z,95326.89
2023-01-19T18:12:14.568Z,95328.72
2023-01-19T18:15:45.481Z,95337.44
2023-01-19T18:19:18.010Z,95342.09
2023-01-19T18:22:50.275Z,95344.18
2023-01-19T18:26:11.414Z,95338.18
2023-01-19T18:29:43.942Z,95345.60
2023-01-19T18:33:15.390Z,95349.09
2023-01-19T18:36:49.306Z,95358.80
2023-01-19T18:40:25.339Z,95362.91
2023-01-19T19:39:30.968Z,95392.23
2023-01-19T19:46:42.487Z,95394.34
2023-01-19T19:50:12.792Z,95405.92
2023-01-19T19:53:43.571Z,95411.65
2023-01-19T19:57:15.417Z,95411.91
2023-01-19T20:00:47.073Z,95415.58
2023-01-19T20:04:18.848Z,95415.23
2023-01-19T20:07:43.669Z,95418.46
2023-01-19T20:11:14.568Z,95407.58
2023-01-19T20:14:46.570Z,95400.98
2023-01-19T20:18:17.355Z,95406.13
2023-01-19T20:21:54.873Z,95419.30
2023-01-19T20:25:25.335Z,95402.16
2023-01-19T20:28:57.083Z,95405.70
2023-01-19T20:32:30.851Z,95419.69
2023-01-19T20:36:04.109Z,95439.15
2023-01-19T20:39:35.368Z,95445.31
2023-01-19T20:43:06.968Z,95458.64
2023-01-19T20:46:38.953Z,95466.39
2023-01-19T20:50:10.301Z,95473.79
2023-01-19T20:53:42.879Z,95474.32
2023-01-19T20:57:14.883Z,95472.34
2023-01-19T21:00:47.092Z,95479.70
2023-01-19T21:03:57.056Z,95476.56
2023-01-19T21:07:27.965Z,95462.79
2023-01-19T21:10:59.456Z,95463.38
2023-01-19T21:14:36.464Z,95463.20
2023-01-19T21:18:07.940Z,95452.95
2023-01-19T21:21:40.597Z,95456.53
2023-01-19T21:25:14.363Z,95450.89
2023-01-19T21:28:45.878Z,95460.52
2023-01-19T21:32:17.625Z,95467.81
2023-01-19T21:35:39.203Z,95484.45
2023-01-19T21:39:13.278Z,95508.02
2023-01-19T21:42:45.042Z,95502.20
2023-01-19T21:46:16.512Z,95506.88
2023-01-19T21:49:47.931Z,95504.51
2023-01-19T21:53:19.856Z,95491.68
2023-01-19T21:56:51.771Z,95507.18
2023-01-19T22:00:22.846Z,95526.95
2023-01-19T22:03:54.538Z,95520.27
2023-01-19T22:07:26.476Z,95512.86
2023-01-19T22:10:57.916Z,95519.19
2023-01-19T22:14:29.062Z,95510.45
2023-01-19T22:18:01.260Z,95508.61
2023-01-19T22:21:32.355Z,95497.19
2023-01-19T22:25:05.301Z,95496.95
2023-01-19T22:28:31.285Z,95490.38
2023-01-19T22:32:03.421Z,95491.58
2023-01-19T22:35:34.848Z,95493.57
2023-01-19T22:39:07.823Z,95499.44
2023-01-19T22:42:40.589Z,95499.77
2023-01-19T22:46:03.663Z,95494.21
2023-01-19T22:49:35.182Z,95486.10
2023-01-19T22:53:09.821Z,95469.05
2023-01-19T22:56:41.970Z,95468.96
2023-01-19T23:00:13.562Z,95472.54
2023-01-19T23:03:46.563Z,95472.54
2023-01-19T23:07:19.464Z,95478.80
2023-01-19T23:10:51.210Z,95490.46
2023-01-19T23:14:25.522Z,95505.84
2023-01-19T23:17:57.484Z,95518.89
2023-01-19T23:21:29.489Z,95528.42
2023-01-19T23:25:02.065Z,95523.78
2023-01-19T23:28:33.253Z,95520.24
2023-01-19T23:32:05.695Z,95515.61
2023-01-19T23:35:40.368Z,95508.31
2023-01-19T23:39:11.983Z,95489.43
2023-01-19T23:42:35.736Z,95484.96
2023-01-19T23:46:06.830Z,95480.94
2023-01-19T23:49:38.129Z,95488.39
2023-01-19T23:53:08.924Z,95489.41
2023-01-19T23:56:39.434Z,95493.03
